Orbital elements of H-2A DEB
| Launched | 28 October 2018 |
| Flight ended | – |
| Launch site | Tanegashima Space Center, Japan |
| Owner | Japan |
| NORAD ID | 48551 |
| Date fetched |
Epoch osculation |
Inc. [°] |
Ecc. | RA asc node [hr] |
Arg Peri. [°] |
Mean anom [°] |
Mean motion [rev/day] |
Abs. mag |
| Date fetched |
Epoch osculation |
Inc. [°] |
Ecc. | RA asc node [hr] |
Arg Peri. [°] |
Mean anom [°] |
Mean motion [rev/day] |
Abs. mag |
| 2026 May 08 17:57 | 2026 May 05 08:35:07 | 97.9524 | 0.00303 | 23.7972 | 133.8033 | 226.5688 | 14.65989 | – |
| 2026 May 07 17:58 | 2026 May 05 08:35:07 | 97.9524 | 0.00303 | 23.7972 | 133.8033 | 226.5688 | 14.65989 | – |
| 2026 May 06 17:57 | 2026 May 05 08:35:07 | 97.9524 | 0.00303 | 23.7972 | 133.8033 | 226.5688 | 14.65989 | – |
| 2026 May 05 17:57 | 2026 May 05 08:35:07 | 97.9524 | 0.00303 | 23.7972 | 133.8033 | 226.5688 | 14.65989 | – |
| 2026 May 04 17:57 | 2026 Apr 30 13:55:02 | 97.9533 | 0.00300 | 23.4887 | 148.5906 | 226.5688 | 14.65989 | – |
| 2026 May 03 17:57 | 2026 Apr 30 13:55:02 | 97.9533 | 0.00300 | 23.4887 | 148.5906 | 226.5688 | 14.65989 | – |
| 2026 May 02 17:57 | 2026 Apr 30 13:55:02 | 97.9533 | 0.00300 | 23.4887 | 148.5906 | 226.5688 | 14.65989 | – |
| 2026 May 01 17:56 | 2026 Apr 30 13:55:02 | 97.9533 | 0.00300 | 23.4887 | 148.5906 | 226.5688 | 14.65989 | – |
| 2026 Apr 30 17:56 | 2026 Apr 30 13:55:02 | 97.9533 | 0.00300 | 23.4887 | 148.5906 | 226.5688 | 14.65989 | – |
| 2026 Apr 29 17:57 | 2026 Apr 24 02:17:41 | 97.9543 | 0.00295 | 23.0700 | 168.8511 | 226.5688 | 14.65989 | – |
| 2026 Apr 28 17:56 | 2026 Apr 24 02:17:41 | 97.9543 | 0.00295 | 23.0700 | 168.8511 | 226.5688 | 14.65989 | – |
| 2026 Apr 27 17:58 | 2026 Apr 24 02:17:41 | 97.9543 | 0.00295 | 23.0700 | 168.8511 | 226.5688 | 14.65989 | – |
| 2026 Apr 26 17:58 | 2026 Apr 24 02:17:41 | 97.9543 | 0.00295 | 23.0700 | 168.8511 | 226.5688 | 14.65989 | – |
| 2026 Apr 25 17:58 | 2026 Apr 24 02:17:41 | 97.9543 | 0.00295 | 23.0700 | 168.8511 | 226.5688 | 14.65989 | – |
| 2026 Apr 24 17:59 | 2026 Apr 24 02:17:41 | 97.9543 | 0.00295 | 23.0700 | 168.8511 | 226.5688 | 14.65989 | – |
| 2026 Apr 23 17:57 | 2026 Apr 19 09:15:45 | 97.9546 | 0.00292 | 22.7659 | 183.8151 | 226.5688 | 14.65989 | – |
| 2026 Apr 22 17:57 | 2026 Apr 19 09:15:45 | 97.9546 | 0.00292 | 22.7659 | 183.8151 | 226.5688 | 14.65989 | – |
| 2026 Apr 21 17:57 | 2026 Apr 19 09:15:45 | 97.9546 | 0.00292 | 22.7659 | 183.8151 | 226.5688 | 14.65989 | – |
| 2026 Apr 20 17:57 | 2026 Apr 19 09:15:45 | 97.9546 | 0.00292 | 22.7659 | 183.8151 | 226.5688 | 14.65989 | – |
| 2026 Apr 19 17:58 | 2026 Apr 19 09:15:45 | 97.9546 | 0.00292 | 22.7659 | 183.8151 | 226.5688 | 14.65989 | – |
| 2026 Apr 18 17:56 | 2026 Apr 13 02:33:07 | 97.9563 | 0.00287 | 22.3603 | 204.0963 | 226.5688 | 14.65989 | – |
| 2026 Apr 16 17:57 | 2026 Apr 13 02:33:07 | 97.9563 | 0.00287 | 22.3603 | 204.0963 | 226.5688 | 14.65989 | – |
| 2026 Apr 14 17:57 | 2026 Apr 13 02:33:07 | 97.9563 | 0.00287 | 22.3603 | 204.0963 | 226.5688 | 14.65989 | – |
| 2026 Apr 13 17:57 | 2026 Apr 13 02:33:07 | 97.9563 | 0.00287 | 22.3603 | 204.0963 | 226.5688 | 14.65989 | – |
| 2026 Apr 12 17:57 | 2026 Apr 08 14:25:59 | 97.9568 | 0.00284 | 22.0694 | 218.7978 | 226.5688 | 14.65989 | – |
| 2026 Apr 11 17:57 | 2026 Apr 08 14:25:59 | 97.9568 | 0.00284 | 22.0694 | 218.7978 | 226.5688 | 14.65989 | – |